createdAt,value
2023-02-07T00:01:43.846Z,13.60
2023-02-07T00:04:11.127Z,14.73
2023-02-07T00:06:38.501Z,16.53
2023-02-07T00:09:08.208Z,15.63
2023-02-07T00:11:36.650Z,14.10
2023-02-07T00:14:04.447Z,12.17
2023-02-07T00:16:33.465Z,12.47
2023-02-07T00:19:00.939Z,14.20
2023-02-07T00:21:28.911Z,12.80
2023-02-07T00:23:56.512Z,12.70
2023-02-07T00:26:25.790Z,14.97
2023-02-07T00:28:55.207Z,13.13
2023-02-07T00:31:26.391Z,12.83
2023-02-07T00:33:57.646Z,12.37
2023-02-07T00:36:27.291Z,12.77
2023-02-07T00:38:56.975Z,12.80
2023-02-07T00:41:24.636Z,12.73
2023-02-07T00:43:54.072Z,12.90
2023-02-07T00:46:21.483Z,13.10
2023-02-07T00:48:49.031Z,13.80
2023-02-07T00:51:17.957Z,14.50
2023-02-07T00:53:46.019Z,12.83
2023-02-07T00:56:14.457Z,14.73
2023-02-07T00:58:41.812Z,14.30
2023-02-07T01:01:09.473Z,15.07
2023-02-07T01:03:37.047Z,16.23
2023-02-07T01:06:05.259Z,13.80
2023-02-07T01:08:33.948Z,14.83
2023-02-07T01:11:02.913Z,15.00
2023-02-07T01:13:30.746Z,15.60
2023-02-07T01:15:59.272Z,15.00
2023-02-07T01:18:28.494Z,16.27
2023-02-07T01:20:55.833Z,14.70
2023-02-07T01:23:23.099Z,15.77
2023-02-07T01:25:51.744Z,15.20
2023-02-07T01:28:19.065Z,16.10
2023-02-07T01:30:47.004Z,16.00
2023-02-07T01:33:14.384Z,17.60
2023-02-07T01:35:41.778Z,18.87
2023-02-07T01:38:08.953Z,16.50
2023-02-07T01:40:37.882Z,18.20
2023-02-07T01:43:15.808Z,18.97
2023-02-07T01:45:43.338Z,19.37
2023-02-07T01:48:13.814Z,19.60
2023-02-07T01:50:44.014Z,17.13
2023-02-07T01:53:14.536Z,16.63
2023-02-07T01:55:45.170Z,16.47
2023-02-07T01:58:14.020Z,19.17
2023-02-07T02:00:41.682Z,17.10
2023-02-07T02:03:09.033Z,16.40
2023-02-07T02:05:39.324Z,16.00
2023-02-07T02:08:06.930Z,16.00
2023-02-07T02:10:54.990Z,15.93
2023-02-07T02:13:30.440Z,15.43
2023-02-07T02:16:07.960Z,15.90
2023-02-07T02:19:01.983Z,16.37
2023-02-07T02:22:11.328Z,14.37
2023-02-07T02:25:05.879Z,14.27
2023-02-07T02:27:53.651Z,15.63
2023-02-07T02:30:36.569Z,15.77
2023-02-07T02:33:39.801Z,15.67
2023-02-07T02:36:15.159Z,16.00
2023-02-07T02:38:49.015Z,15.00
2023-02-07T02:41:21.395Z,15.13
2023-02-07T02:43:54.329Z,14.87
2023-02-07T02:46:25.256Z,14.97
2023-02-07T02:48:56.058Z,15.67
2023-02-07T02:51:23.340Z,16.47
2023-02-07T02:53:52.493Z,14.07
2023-02-07T02:56:38.386Z,15.20
2023-02-07T02:59:33.452Z,15.10
2023-02-07T03:02:14.286Z,14.43
2023-02-07T03:05:07.949Z,16.43
2023-02-07T03:07:48.089Z,14.13
2023-02-07T03:10:25.406Z,13.60
2023-02-07T03:12:58.444Z,14.73
2023-02-07T03:15:34.974Z,15.97
2023-02-07T03:18:08.756Z,14.90
2023-02-07T03:20:41.751Z,16.93
2023-02-07T03:23:11.779Z,14.53
2023-02-07T03:25:41.418Z,14.37
2023-02-07T03:28:11.183Z,14.80
2023-02-07T03:30:40.549Z,13.77
2023-02-07T03:33:13.515Z,16.03
2023-02-07T03:35:47.377Z,16.67
2023-02-07T03:38:15.180Z,15.00
2023-02-07T03:40:45.216Z,16.17
2023-02-07T03:43:16.448Z,17.50
2023-02-07T03:45:43.836Z,16.57
2023-02-07T03:48:11.222Z,16.87
2023-02-07T03:50:38.667Z,16.20
2023-02-07T03:53:07.366Z,18.20
2023-02-07T03:55:35.164Z,14.60
2023-02-07T03:58:02.448Z,15.30
2023-02-07T04:00:29.790Z,15.27
2023-02-07T04:02:57.021Z,14.90
2023-02-07T04:05:24.389Z,14.50
2023-02-07T04:07:51.634Z,16.67
2023-02-07T04:10:20.361Z,16.20
2023-02-07T04:12:47.611Z,16.07
2023-02-07T04:15:14.864Z,16.90
2023-02-07T04:17:42.146Z,16.20
2023-02-07T04:20:10.894Z,18.13
2023-02-07T04:22:38.163Z,18.40
2023-02-07T04:25:06.204Z,17.40
2023-02-07T04:27:34.955Z,19.70
2023-02-07T04:30:02.295Z,18.07
2023-02-07T04:32:29.551Z,18.60
2023-02-07T04:34:56.862Z,16.97
2023-02-07T04:37:24.047Z,19.90
2023-02-07T04:39:51.450Z,16.67
2023-02-07T04:42:18.823Z,19.80
2023-02-07T04:44:47.499Z,20.30
2023-02-07T04:47:14.673Z,20.00
2023-02-07T04:49:42.248Z,17.70
2023-02-07T04:52:09.576Z,20.30
2023-02-07T04:54:36.938Z,16.83
2023-02-07T04:57:04.686Z,20.40
2023-02-07T04:59:32.017Z,19.93
2023-02-07T05:02:00.608Z,21.67
2023-02-07T05:04:28.244Z,20.10
2023-02-07T05:06:55.652Z,19.60
2023-02-07T05:09:22.963Z,14.30
2023-02-07T05:11:50.222Z,20.17
2023-02-07T05:14:17.536Z,20.50
2023-02-07T05:16:44.992Z,18.17
2023-02-07T05:19:14.088Z,18.30
2023-02-07T05:21:41.338Z,20.77
2023-02-07T05:24:08.589Z,21.60
2023-02-07T05:26:35.845Z,22.00
2023-02-07T05:29:03.241Z,20.57
2023-02-07T05:31:30.683Z,22.87
2023-02-07T05:33:58.015Z,21.93
2023-02-07T05:36:26.622Z,20.87
2023-02-07T05:38:53.987Z,23.37
2023-02-07T05:41:21.222Z,21.50
2023-02-07T05:43:48.514Z,21.07
2023-02-07T05:46:15.773Z,22.33
2023-02-07T05:48:43.159Z,20.00
2023-02-07T05:51:10.454Z,20.77
2023-02-07T05:53:39.082Z,21.40
2023-02-07T05:56:06.794Z,20.43
2023-02-07T05:58:34.136Z,20.17
2023-02-07T06:01:01.339Z,22.57
2023-02-07T06:03:28.617Z,21.07
2023-02-07T06:05:55.815Z,21.20
2023-02-07T06:08:23.076Z,22.53
2023-02-07T06:10:51.767Z,21.13
2023-02-07T06:13:19.063Z,21.57
2023-02-07T06:15:47.223Z,23.10
2023-02-07T06:18:14.593Z,23.50
2023-02-07T06:20:41.833Z,20.20
2023-02-07T06:23:09.163Z,24.07
2023-02-07T06:25:36.787Z,23.50
2023-02-07T06:28:05.882Z,23.60
2023-02-07T06:30:33.272Z,22.60
2023-02-07T06:33:00.562Z,24.47
2023-02-07T06:35:27.970Z,23.50
2023-02-07T06:37:55.385Z,24.17
2023-02-07T06:40:22.711Z,24.53
2023-02-07T06:42:49.982Z,24.00
2023-02-07T06:45:18.612Z,21.37
2023-02-07T06:47:46.768Z,25.70
2023-02-07T06:50:14.209Z,24.47
2023-02-07T06:52:41.496Z,24.67
2023-02-07T06:55:08.892Z,24.10
2023-02-07T06:57:36.225Z,35.97
2023-02-07T07:00:05.178Z,22.60
2023-02-07T07:02:33.877Z,24.80
2023-02-07T07:05:01.227Z,24.10
2023-02-07T07:07:28.586Z,22.77
2023-02-07T07:09:55.835Z,23.23
2023-02-07T07:12:23.061Z,22.47
2023-02-07T07:14:50.268Z,24.03
2023-02-07T07:17:17.614Z,22.40
2023-02-07T07:19:46.192Z,24.00
2023-02-07T07:22:13.506Z,23.43
2023-02-07T07:24:40.807Z,25.03
2023-02-07T07:27:08.132Z,24.13
2023-02-07T07:29:35.435Z,23.80
2023-02-07T07:32:02.770Z,25.87
2023-02-07T07:34:29.976Z,23.53
2023-02-07T07:36:58.657Z,26.50
2023-02-07T07:39:26.183Z,25.13
2023-02-07T07:41:53.728Z,25.63
2023-02-07T07:44:38.463Z,23.77
2023-02-07T07:47:06.239Z,24.90
2023-02-07T07:49:33.570Z,25.37
2023-02-07T07:52:02.265Z,26.13
2023-02-07T07:54:29.522Z,25.60
2023-02-07T07:56:57.038Z,23.53
2023-02-07T07:59:24.446Z,25.20
2023-02-07T08:01:51.760Z,26.70
2023-02-07T08:04:19.205Z,24.40
2023-02-07T08:06:46.579Z,25.93
2023-02-07T08:09:15.646Z,26.90
2023-02-07T08:11:42.912Z,24.70
2023-02-07T08:14:10.181Z,25.90
2023-02-07T08:16:37.528Z,25.80
2023-02-07T08:19:04.874Z,26.83
2023-02-07T08:21:32.113Z,24.07
2023-02-07T08:23:59.329Z,26.43
2023-02-07T08:26:27.926Z,24.77
2023-02-07T08:28:55.194Z,25.43
2023-02-07T08:31:22.631Z,28.10
2023-02-07T08:33:49.892Z,25.40
2023-02-07T08:36:17.313Z,23.63
2023-02-07T08:38:44.592Z,26.30
2023-02-07T08:41:11.886Z,24.70
2023-02-07T08:43:40.515Z,25.87
2023-02-07T08:46:07.960Z,24.30
2023-02-07T08:48:35.307Z,24.20
2023-02-07T08:51:06.092Z,23.20
2023-02-07T08:53:34.023Z,25.97
2023-02-07T08:56:01.240Z,24.00
2023-02-07T08:58:28.608Z,21.73
2023-02-07T09:00:57.302Z,25.57
2023-02-07T09:03:24.582Z,21.70
2023-02-07T09:05:57.636Z,23.80
2023-02-07T09:08:24.894Z,21.73
2023-02-07T09:10:52.857Z,22.60
2023-02-07T09:13:20.225Z,22.03
2023-02-07T09:15:53.745Z,21.60
2023-02-07T09:18:22.586Z,23.13
2023-02-07T09:20:49.919Z,24.00
2023-02-07T09:23:17.194Z,22.57
2023-02-07T09:25:45.043Z,21.57
2023-02-07T09:28:12.548Z,22.80
2023-02-07T09:30:40.964Z,22.43
2023-02-07T09:33:08.448Z,21.67
2023-02-07T09:35:41.781Z,20.43
2023-02-07T09:38:13.479Z,19.77
2023-02-07T09:40:41.535Z,20.83
2023-02-07T09:43:18.922Z,19.83
2023-02-07T09:45:49.407Z,19.10
2023-02-07T09:48:21.661Z,19.93
2023-02-07T09:50:53.211Z,18.73
2023-02-07T09:53:25.406Z,19.77
2023-02-07T09:55:56.440Z,20.20
2023-02-07T09:58:34.421Z,18.93
2023-02-07T10:01:08.828Z,18.73
2023-02-07T10:03:42.642Z,17.53
2023-02-07T10:06:18.934Z,18.47
2023-02-07T10:08:49.568Z,17.20
2023-02-07T10:11:25.857Z,16.90
2023-02-07T10:14:11.216Z,21.10
2023-02-07T10:16:52.964Z,16.80
2023-02-07T10:19:30.264Z,17.63
2023-02-07T10:22:08.583Z,16.47
2023-02-07T10:25:02.544Z,18.33
2023-02-07T10:27:31.544Z,14.73
2023-02-07T10:30:04.718Z,15.93
2023-02-07T10:32:35.792Z,12.57
2023-02-07T10:35:14.288Z,12.27
2023-02-07T10:37:45.315Z,13.27
2023-02-07T10:40:16.926Z,13.50
2023-02-07T10:42:48.828Z,13.20
2023-02-07T10:45:16.970Z,11.30
2023-02-07T10:47:44.217Z,11.87
2023-02-07T10:50:24.794Z,14.57
2023-02-07T10:52:59.075Z,12.40
2023-02-07T10:55:39.386Z,12.80
2023-02-07T10:58:21.182Z,12.50
2023-02-07T11:00:51.769Z,12.03
2023-02-07T11:03:20.543Z,11.60
2023-02-07T11:05:54.796Z,12.67
2023-02-07T11:08:26.788Z,10.80
2023-02-07T11:10:56.502Z,11.00
2023-02-07T11:13:27.265Z,13.43
2023-02-07T11:15:59.232Z,11.07
2023-02-07T11:18:35.378Z,11.50
2023-02-07T11:21:03.555Z,11.50
2023-02-07T11:23:32.655Z,10.13
2023-02-07T11:26:03.603Z,11.80
2023-02-07T11:28:33.410Z,11.50
2023-02-07T11:31:05.151Z,11.03
2023-02-07T11:33:35.630Z,11.30
2023-02-07T11:36:06.568Z,11.47
2023-02-07T11:38:39.283Z,10.10
2023-02-07T11:41:16.839Z,11.47
2023-02-07T11:43:53.465Z,9.93
2023-02-07T11:46:21.394Z,10.40
2023-02-07T11:48:52.450Z,10.33
2023-02-07T11:51:20.034Z,11.97
2023-02-07T11:53:53.587Z,11.57
2023-02-07T11:56:24.175Z,11.70
2023-02-07T11:58:53.480Z,12.30
2023-02-07T12:01:27.306Z,10.40
2023-02-07T12:03:57.585Z,9.47
2023-02-07T12:06:29.229Z,16.60
2023-02-07T12:08:59.476Z,9.43
2023-02-07T12:11:31.935Z,10.60
2023-02-07T12:14:04.821Z,10.73
2023-02-07T12:16:38.530Z,8.83
2023-02-07T12:19:12.668Z,9.47
2023-02-07T12:21:46.800Z,8.87
2023-02-07T12:24:21.045Z,10.00
2023-02-07T12:26:55.581Z,9.83
2023-02-07T12:29:31.179Z,8.80
2023-02-07T12:32:06.063Z,9.23
2023-02-07T12:34:38.343Z,8.80
2023-02-07T12:37:17.644Z,8.83
2023-02-07T12:39:53.512Z,8.30
2023-02-07T12:42:31.582Z,9.70
2023-02-07T12:45:01.680Z,8.80
2023-02-07T12:47:40.836Z,9.10
2023-02-07T12:50:49.592Z,9.03
2023-02-07T12:53:33.110Z,8.93
2023-02-07T12:56:13.308Z,9.30
2023-02-07T12:58:49.961Z,8.23
2023-02-07T13:01:24.405Z,10.20
2023-02-07T13:04:24.387Z,9.17
2023-02-07T13:07:05.539Z,9.40
2023-02-07T13:09:42.822Z,10.03
2023-02-07T13:12:15.363Z,9.27
2023-02-07T13:14:57.446Z,9.70
2023-02-07T13:17:42.127Z,10.50
2023-02-07T13:20:24.173Z,9.20
2023-02-07T13:22:56.695Z,9.50
2023-02-07T13:25:28.588Z,9.63
2023-02-07T13:28:00.700Z,8.73
2023-02-07T13:30:30.270Z,8.00
2023-02-07T13:33:03.061Z,6.87
2023-02-07T13:35:34.690Z,7.97
2023-02-07T13:38:11.754Z,8.00
2023-02-07T13:40:53.641Z,7.90
2023-02-07T13:43:35.473Z,8.57
2023-02-07T13:46:12.701Z,7.37
2023-02-07T13:48:46.274Z,7.30
2023-02-07T13:51:22.173Z,7.70
2023-02-07T13:53:58.770Z,9.23
2023-02-07T13:56:32.236Z,9.10
2023-02-07T13:59:01.571Z,8.40
2023-02-07T14:01:31.509Z,8.37
2023-02-07T14:04:04.521Z,7.47
2023-02-07T14:06:35.000Z,7.63
2023-02-07T14:09:05.956Z,7.87
2023-02-07T14:11:40.045Z,7.90
2023-02-07T14:14:16.672Z,9.00
2023-02-07T14:16:50.260Z,7.73
2023-02-07T14:19:53.963Z,7.67
2023-02-07T14:22:26.840Z,8.67
2023-02-07T14:25:21.477Z,9.27
2023-02-07T14:28:07.830Z,7.80
2023-02-07T14:30:38.455Z,7.40
2023-02-07T14:33:12.885Z,9.17
2023-02-07T14:36:01.772Z,8.60
2023-02-07T14:38:33.305Z,9.07
2023-02-07T14:41:11.116Z,9.10
2023-02-07T14:43:56.778Z,8.93
2023-02-07T14:46:37.472Z,8.67
2023-02-07T14:49:11.358Z,9.07
2023-02-07T14:51:43.671Z,8.87
2023-02-07T14:54:19.068Z,9.30
2023-02-07T14:56:59.115Z,9.60
2023-02-07T14:59:32.151Z,9.07
2023-02-07T15:02:32.293Z,9.53
2023-02-07T15:05:16.382Z,9.20
2023-02-07T15:07:44.104Z,8.70
2023-02-07T15:10:14.865Z,9.70
2023-02-07T15:12:43.137Z,9.17
2023-02-07T15:15:18.889Z,9.23
2023-02-07T15:17:48.261Z,9.93
2023-02-07T15:20:18.697Z,9.00
2023-02-07T15:22:48.855Z,9.90
2023-02-07T15:25:16.510Z,9.70
2023-02-07T15:27:58.933Z,10.63
2023-02-07T15:30:26.293Z,10.33
2023-02-07T15:32:54.917Z,10.40
2023-02-07T15:35:25.495Z,10.80
2023-02-07T15:37:54.019Z,10.10
2023-02-07T15:40:25.675Z,11.30
2023-02-07T15:42:55.411Z,11.40
2023-02-07T15:45:24.715Z,12.17
2023-02-07T15:48:00.431Z,11.40
2023-02-07T15:50:30.205Z,11.70
2023-02-07T15:52:58.677Z,12.20
2023-02-07T15:55:33.170Z,10.60
2023-02-07T15:58:01.540Z,12.73
2023-02-07T16:00:31.942Z,13.73
2023-02-07T16:03:05.746Z,13.70
2023-02-07T16:05:35.283Z,12.40
2023-02-07T16:08:05.979Z,11.53
2023-02-07T16:10:39.181Z,12.53
2023-02-07T16:13:18.185Z,12.83
2023-02-07T16:15:54.360Z,13.30
2023-02-07T16:18:37.553Z,11.77
2023-02-07T16:21:06.783Z,13.03
2023-02-07T16:23:35.045Z,13.20
2023-02-07T16:26:02.461Z,12.80
2023-02-07T16:28:30.230Z,12.73
2023-02-07T16:30:58.329Z,13.00
2023-02-07T16:33:25.762Z,14.27
2023-02-07T16:35:54.561Z,13.90
2023-02-07T16:38:21.846Z,14.20
2023-02-07T16:40:49.435Z,13.57
2023-02-07T16:43:34.149Z,13.83
2023-02-07T16:46:01.690Z,13.27
2023-02-07T16:48:29.175Z,15.00
2023-02-07T16:50:57.926Z,14.40
2023-02-07T16:53:25.376Z,12.80
2023-02-07T16:55:54.018Z,13.93
2023-02-07T16:58:26.135Z,12.30
2023-02-07T17:00:54.477Z,13.13
2023-02-07T17:03:22.881Z,13.50
2023-02-07T17:05:50.913Z,14.57
2023-02-07T17:08:22.729Z,14.50
2023-02-07T17:10:54.136Z,14.20
2023-02-07T17:13:21.536Z,14.60
2023-02-07T17:15:48.954Z,14.27
2023-02-07T17:18:16.439Z,15.10
2023-02-07T17:20:43.766Z,21.73
2023-02-07T17:23:11.264Z,15.40
2023-02-07T17:25:39.947Z,13.77
2023-02-07T17:28:07.553Z,15.10
2023-02-07T17:30:38.609Z,13.53
2023-02-07T17:33:06.645Z,15.13
2023-02-07T17:35:34.262Z,14.87
2023-02-07T17:38:01.733Z,15.10
2023-02-07T17:40:31.146Z,16.20
2023-02-07T17:43:00.116Z,16.27
2023-02-07T17:45:28.848Z,16.60
2023-02-07T17:47:56.373Z,16.60
2023-02-07T17:50:26.565Z,15.90
2023-02-07T17:52:53.933Z,17.17
2023-02-07T17:55:21.363Z,16.83
2023-02-07T17:57:48.894Z,16.00
2023-02-07T18:00:20.413Z,15.60
2023-02-07T18:02:47.826Z,15.53
2023-02-07T18:05:16.347Z,25.07
2023-02-07T18:07:44.363Z,15.17
2023-02-07T18:10:14.158Z,16.50
2023-02-07T18:12:41.463Z,16.10
2023-02-07T18:15:09.876Z,17.33
2023-02-07T18:17:38.771Z,17.87
2023-02-07T18:20:07.903Z,16.33
2023-02-07T18:22:35.112Z,19.40
2023-02-07T18:25:02.539Z,18.10
2023-02-07T18:27:29.804Z,17.03
2023-02-07T18:29:57.122Z,18.60
2023-02-07T18:32:24.452Z,18.47
2023-02-07T18:34:53.031Z,18.83
2023-02-07T18:37:20.343Z,18.27
2023-02-07T18:39:47.812Z,19.40
2023-02-07T18:42:15.051Z,18.20
2023-02-07T18:44:42.226Z,18.73
2023-02-07T18:47:09.591Z,19.43
2023-02-07T18:49:36.836Z,24.53
2023-02-07T18:52:05.700Z,18.93
2023-02-07T18:54:33.024Z,17.80
2023-02-07T18:57:00.322Z,22.83
2023-02-07T18:59:27.613Z,17.07
2023-02-07T19:01:54.849Z,17.30
2023-02-07T19:04:22.286Z,16.33
2023-02-07T19:06:50.471Z,20.73
2023-02-07T19:09:20.434Z,18.00
2023-02-07T19:11:50.369Z,18.00
2023-02-07T19:14:19.431Z,18.67
2023-02-07T19:16:47.127Z,17.73
2023-02-07T19:19:15.110Z,19.23
2023-02-07T19:21:42.561Z,18.80
2023-02-07T19:24:13.754Z,18.33
2023-02-07T19:26:42.957Z,19.47
2023-02-07T19:29:13.280Z,19.33
2023-02-07T19:31:40.769Z,19.40
2023-02-07T19:34:08.103Z,20.03
2023-02-07T19:36:35.433Z,19.30
2023-02-07T19:39:04.306Z,18.43
2023-02-07T19:41:31.751Z,18.00
2023-02-07T19:44:00.699Z,17.60
2023-02-07T19:46:28.138Z,19.43
2023-02-07T19:48:55.461Z,19.50
2023-02-07T19:51:24.500Z,18.23
2023-02-07T19:53:52.129Z,19.20
2023-02-07T19:56:21.279Z,18.40
2023-02-07T19:58:50.558Z,18.23
2023-02-07T20:01:20.553Z,19.00
2023-02-07T20:03:49.919Z,18.00
2023-02-07T20:06:19.612Z,18.47
2023-02-07T20:08:47.602Z,18.60
2023-02-07T20:11:16.701Z,18.40
2023-02-07T20:13:47.512Z,17.73
2023-02-07T20:16:17.444Z,17.67
2023-02-07T20:18:46.202Z,19.43
2023-02-07T20:21:15.374Z,18.30
2023-02-07T20:23:43.025Z,18.73
2023-02-07T20:26:13.162Z,17.30
2023-02-07T20:28:40.656Z,17.93
2023-02-07T20:31:09.075Z,20.37
2023-02-07T20:33:37.452Z,22.77
2023-02-07T20:36:07.844Z,21.80
2023-02-07T20:38:35.433Z,21.60
2023-02-07T20:41:07.245Z,19.93
2023-02-07T20:43:34.557Z,22.07
2023-02-07T20:46:07.479Z,20.53
2023-02-07T20:48:35.375Z,26.23
2023-02-07T20:51:02.680Z,44.67
2023-02-07T20:53:31.559Z,28.67
2023-02-07T20:56:05.925Z,24.90
2023-02-07T20:58:33.351Z,21.43
2023-02-07T21:01:06.923Z,22.40
2023-02-07T21:03:34.417Z,20.43
2023-02-07T21:06:01.744Z,20.03
2023-02-07T21:08:29.054Z,18.80
2023-02-07T21:10:58.290Z,20.63
2023-02-07T21:13:26.085Z,19.40
2023-02-07T21:16:02.709Z,19.90
2023-02-07T21:18:30.741Z,18.90
2023-02-07T21:20:58.219Z,17.80
2023-02-07T21:23:26.250Z,18.87
2023-02-07T21:25:53.524Z,19.47
2023-02-07T21:28:22.213Z,19.57
2023-02-07T21:30:49.548Z,19.53
2023-02-07T21:33:16.814Z,18.47
2023-02-07T21:35:44.052Z,29.43
2023-02-07T21:38:11.394Z,36.97
2023-02-07T21:40:38.919Z,18.90
2023-02-07T21:43:06.292Z,17.97
2023-02-07T21:45:34.893Z,16.60
2023-02-07T21:48:02.302Z,18.40
2023-02-07T21:50:29.595Z,19.17
2023-02-07T21:52:57.003Z,17.80
2023-02-07T21:55:24.285Z,17.50
2023-02-07T21:57:51.477Z,17.20
2023-02-07T22:00:18.913Z,17.47
2023-02-07T22:02:47.552Z,17.07
2023-02-07T22:05:15.008Z,17.17
2023-02-07T22:07:42.352Z,17.90
2023-02-07T22:10:09.612Z,17.50
2023-02-07T22:12:36.941Z,17.43
2023-02-07T22:15:04.729Z,16.03
2023-02-07T22:17:32.028Z,17.80
2023-02-07T22:20:00.612Z,16.57
2023-02-07T22:22:27.864Z,18.17
2023-02-07T22:24:55.104Z,18.53
2023-02-07T22:27:22.354Z,21.07
2023-02-07T22:29:49.621Z,18.47
2023-02-07T22:32:16.932Z,18.60
2023-02-07T22:34:44.331Z,16.40
2023-02-07T22:37:12.958Z,17.93
2023-02-07T22:39:40.355Z,15.10
2023-02-07T22:42:07.681Z,17.07
2023-02-07T22:44:35.162Z,18.03
2023-02-07T22:47:02.639Z,18.07
2023-02-07T22:49:29.901Z,17.00
2023-02-07T22:51:57.217Z,18.87
2023-02-07T22:54:25.882Z,18.37
2023-02-07T22:56:53.158Z,17.17
2023-02-07T22:59:20.391Z,17.03
2023-02-07T23:01:47.856Z,17.80
2023-02-07T23:04:16.710Z,16.73
2023-02-07T23:06:44.195Z,16.33
2023-02-07T23:09:11.471Z,16.33
2023-02-07T23:11:40.082Z,16.57
2023-02-07T23:14:07.384Z,16.30
2023-02-07T23:16:35.585Z,18.00
2023-02-07T23:19:05.082Z,17.23
2023-02-07T23:21:32.676Z,18.13
2023-02-07T23:23:59.963Z,16.83
2023-02-07T23:26:27.689Z,18.43
2023-02-07T23:28:56.813Z,19.13
2023-02-07T23:31:25.493Z,17.60
2023-02-07T23:33:53.205Z,17.50
2023-02-07T23:36:21.024Z,17.63
2023-02-07T23:38:48.855Z,17.07
2023-02-07T23:41:16.353Z,18.30
2023-02-07T23:43:43.747Z,17.73
2023-02-07T23:46:14.316Z,17.10
2023-02-07T23:48:41.650Z,16.90
2023-02-07T23:51:11.116Z,19.37
2023-02-07T23:53:38.806Z,17.33
2023-02-07T23:56:06.845Z,18.00
2023-02-07T23:58:34.436Z,17.13
